sensor_id;sensor_type;location;lat;lon;timestamp;P1;durP1;ratioP1;P2;durP2;ratioP2
82805;SDS011;72558;51.000;-3.112;2024-03-02T00:00:33;2.6;;;0.6;;
82805;SDS011;72558;51.000;-3.112;2024-03-02T00:03:34;2.6;;;0.5;;
82805;SDS011;72558;51.000;-3.112;2024-03-02T00:06:34;3.0;;;0.4;;
82805;SDS011;72558;51.000;-3.112;2024-03-02T00:09:34;2.9;;;0.7;;
82805;SDS011;72558;51.000;-3.112;2024-03-02T00:12:34;4.2;;;1.0;;
82805;SDS011;72558;51.000;-3.112;2024-03-02T00:15:34;3.2;;;0.8;;
82805;SDS011;72558;51.000;-3.112;2024-03-02T00:18:34;2.8;;;0.7;;
82805;SDS011;72558;51.000;-3.112;2024-03-02T00:21:33;2.3;;;0.5;;
82805;SDS011;72558;51.000;-3.112;2024-03-02T00:24:34;1.7;;;0.7;;
82805;SDS011;72558;51.000;-3.112;2024-03-02T00:27:34;2.3;;;0.7;;
82805;SDS011;72558;51.000;-3.112;2024-03-02T00:30:33;4.0;;;0.8;;
82805;SDS011;72558;51.000;-3.112;2024-03-02T00:33:34;2.8;;;0.8;;
82805;SDS011;72558;51.000;-3.112;2024-03-02T00:36:34;2.6;;;0.5;;
82805;SDS011;72558;51.000;-3.112;2024-03-02T00:39:34;2.9;;;0.6;;
82805;SDS011;72558;51.000;-3.112;2024-03-02T00:42:34;3.3;;;0.7;;
82805;SDS011;72558;51.000;-3.112;2024-03-02T00:45:34;4.1;;;1.0;;
82805;SDS011;72558;51.000;-3.112;2024-03-02T00:48:34;4.5;;;1.2;;
82805;SDS011;72558;51.000;-3.112;2024-03-02T00:51:34;3.7;;;1.2;;
82805;SDS011;72558;51.000;-3.112;2024-03-02T00:54:34;4.6;;;1.7;;
82805;SDS011;72558;51.000;-3.112;2024-03-02T00:57:34;4.0;;;1.3;;
82805;SDS011;72558;51.000;-3.112;2024-03-02T01:00:33;5.5;;;1.7;;
82805;SDS011;72558;51.000;-3.112;2024-03-02T01:03:34;4.3;;;1.2;;
82805;SDS011;72558;51.000;-3.112;2024-03-02T01:06:34;4.8;;;1.5;;
82805;SDS011;72558;51.000;-3.112;2024-03-02T01:09:33;7.2;;;1.3;;
82805;SDS011;72558;51.000;-3.112;2024-03-02T01:12:33;5.3;;;1.3;;
82805;SDS011;72558;51.000;-3.112;2024-03-02T01:15:34;5.0;;;1.5;;
82805;SDS011;72558;51.000;-3.112;2024-03-02T01:18:34;5.3;;;1.3;;
82805;SDS011;72558;51.000;-3.112;2024-03-02T01:21:34;6.6;;;1.3;;
82805;SDS011;72558;51.000;-3.112;2024-03-02T01:24:33;7.3;;;1.3;;
82805;SDS011;72558;51.000;-3.112;2024-03-02T01:27:34;5.7;;;1.5;;
82805;SDS011;72558;51.000;-3.112;2024-03-02T01:30:34;4.7;;;1.1;;
82805;SDS011;72558;51.000;-3.112;2024-03-02T01:33:34;5.5;;;1.2;;
82805;SDS011;72558;51.000;-3.112;2024-03-02T01:36:34;5.5;;;1.3;;
82805;SDS011;72558;51.000;-3.112;2024-03-02T01:39:34;5.1;;;1.3;;
82805;SDS011;72558;51.000;-3.112;2024-03-02T01:42:33;3.6;;;1.0;;
82805;SDS011;72558;51.000;-3.112;2024-03-02T01:45:34;4.8;;;1.3;;
82805;SDS011;72558;51.000;-3.112;2024-03-02T01:48:34;4.9;;;1.1;;
82805;SDS011;72558;51.000;-3.112;2024-03-02T01:51:34;4.8;;;0.9;;
82805;SDS011;72558;51.000;-3.112;2024-03-02T01:54:34;4.3;;;1.0;;
82805;SDS011;72558;51.000;-3.112;2024-03-02T01:57:34;4.5;;;1.1;;
82805;SDS011;72558;51.000;-3.112;2024-03-02T02:00:33;4.4;;;0.9;;
82805;SDS011;72558;51.000;-3.112;2024-03-02T02:03:34;4.5;;;0.8;;
82805;SDS011;72558;51.000;-3.112;2024-03-02T02:06:34;5.2;;;1.0;;
82805;SDS011;72558;51.000;-3.112;2024-03-02T02:09:34;4.0;;;0.8;;
82805;SDS011;72558;51.000;-3.112;2024-03-02T02:12:34;4.0;;;0.9;;
82805;SDS011;72558;51.000;-3.112;2024-03-02T02:15:34;3.6;;;1.0;;
82805;SDS011;72558;51.000;-3.112;2024-03-02T02:18:34;2.7;;;1.0;;
82805;SDS011;72558;51.000;-3.112;2024-03-02T02:21:33;5.0;;;1.3;;
82805;SDS011;72558;51.000;-3.112;2024-03-02T02:24:33;3.4;;;1.2;;
82805;SDS011;72558;51.000;-3.112;2024-03-02T02:27:33;4.2;;;1.4;;
82805;SDS011;72558;51.000;-3.112;2024-03-02T02:30:34;3.0;;;1.2;;
82805;SDS011;72558;51.000;-3.112;2024-03-02T02:33:34;3.9;;;1.2;;
82805;SDS011;72558;51.000;-3.112;2024-03-02T02:36:34;4.4;;;1.2;;
82805;SDS011;72558;51.000;-3.112;2024-03-02T02:39:34;3.6;;;1.0;;
82805;SDS011;72558;51.000;-3.112;2024-03-02T02:42:33;2.8;;;1.1;;
82805;SDS011;72558;51.000;-3.112;2024-03-02T02:45:34;3.4;;;0.9;;
82805;SDS011;72558;51.000;-3.112;2024-03-02T02:48:34;3.3;;;1.0;;
82805;SDS011;72558;51.000;-3.112;2024-03-02T02:51:34;2.4;;;0.6;;
82805;SDS011;72558;51.000;-3.112;2024-03-02T02:54:34;2.2;;;0.9;;
82805;SDS011;72558;51.000;-3.112;2024-03-02T02:57:33;2.9;;;0.8;;
82805;SDS011;72558;51.000;-3.112;2024-03-02T03:00:34;3.3;;;1.0;;
82805;SDS011;72558;51.000;-3.112;2024-03-02T03:03:33;2.4;;;0.6;;
82805;SDS011;72558;51.000;-3.112;2024-03-02T03:06:34;2.0;;;0.5;;
82805;SDS011;72558;51.000;-3.112;2024-03-02T03:09:34;1.0;;;0.3;;
82805;SDS011;72558;51.000;-3.112;2024-03-02T03:12:33;1.5;;;0.3;;
82805;SDS011;72558;51.000;-3.112;2024-03-02T03:15:34;2.1;;;0.5;;
82805;SDS011;72558;51.000;-3.112;2024-03-02T03:18:34;1.6;;;0.5;;
82805;SDS011;72558;51.000;-3.112;2024-03-02T03:21:33;1.3;;;0.4;;
82805;SDS011;72558;51.000;-3.112;2024-03-02T03:24:33;2.6;;;0.5;;
82805;SDS011;72558;51.000;-3.112;2024-03-02T03:27:34;2.1;;;0.4;;
82805;SDS011;72558;51.000;-3.112;2024-03-02T03:30:34;1.6;;;0.4;;
82805;SDS011;72558;51.000;-3.112;2024-03-02T03:33:33;1.7;;;0.5;;
82805;SDS011;72558;51.000;-3.112;2024-03-02T03:36:34;0.8;;;0.3;;
82805;SDS011;72558;51.000;-3.112;2024-03-02T03:39:34;2.2;;;0.5;;
82805;SDS011;72558;51.000;-3.112;2024-03-02T03:42:33;2.3;;;0.4;;
82805;SDS011;72558;51.000;-3.112;2024-03-02T03:45:33;1.4;;;0.4;;
82805;SDS011;72558;51.000;-3.112;2024-03-02T03:48:34;2.3;;;0.9;;
82805;SDS011;72558;51.000;-3.112;2024-03-02T03:51:34;2.5;;;0.4;;
82805;SDS011;72558;51.000;-3.112;2024-03-02T03:54:33;1.9;;;0.8;;
82805;SDS011;72558;51.000;-3.112;2024-03-02T03:57:33;1.5;;;0.8;;
82805;SDS011;72558;51.000;-3.112;2024-03-02T04:00:33;3.0;;;1.0;;
82805;SDS011;72558;51.000;-3.112;2024-03-02T04:03:34;2.1;;;1.1;;
82805;SDS011;72558;51.000;-3.112;2024-03-02T04:06:34;3.9;;;1.3;;
82805;SDS011;72558;51.000;-3.112;2024-03-02T04:09:34;2.5;;;1.1;;
82805;SDS011;72558;51.000;-3.112;2024-03-02T04:12:33;4.1;;;1.4;;
82805;SDS011;72558;51.000;-3.112;2024-03-02T04:15:33;3.3;;;1.0;;
82805;SDS011;72558;51.000;-3.112;2024-03-02T04:18:34;4.5;;;1.1;;
82805;SDS011;72558;51.000;-3.112;2024-03-02T04:21:34;3.7;;;1.3;;
82805;SDS011;72558;51.000;-3.112;2024-03-02T04:24:33;5.4;;;1.4;;
82805;SDS011;72558;51.000;-3.112;2024-03-02T04:27:34;5.4;;;1.9;;
82805;SDS011;72558;51.000;-3.112;2024-03-02T04:30:34;5.2;;;2.0;;
82805;SDS011;72558;51.000;-3.112;2024-03-02T04:33:34;6.7;;;2.4;;
82805;SDS011;72558;51.000;-3.112;2024-03-02T04:36:33;5.7;;;2.2;;
82805;SDS011;72558;51.000;-3.112;2024-03-02T04:39:33;4.0;;;1.7;;
82805;SDS011;72558;51.000;-3.112;2024-03-02T04:42:34;5.7;;;1.8;;
82805;SDS011;72558;51.000;-3.112;2024-03-02T04:45:34;5.6;;;1.8;;
82805;SDS011;72558;51.000;-3.112;2024-03-02T04:48:34;6.6;;;1.9;;
82805;SDS011;72558;51.000;-3.112;2024-03-02T04:51:33;4.6;;;1.7;;
82805;SDS011;72558;51.000;-3.112;2024-03-02T04:54:33;8.3;;;2.2;;
82805;SDS011;72558;51.000;-3.112;2024-03-02T04:57:34;7.5;;;2.0;;
82805;SDS011;72558;51.000;-3.112;2024-03-02T05:00:34;8.9;;;1.8;;
82805;SDS011;72558;51.000;-3.112;2024-03-02T05:03:33;6.7;;;2.5;;
82805;SDS011;72558;51.000;-3.112;2024-03-02T05:06:34;5.1;;;1.7;;
82805;SDS011;72558;51.000;-3.112;2024-03-02T05:09:34;7.9;;;2.1;;
82805;SDS011;72558;51.000;-3.112;2024-03-02T05:12:34;6.5;;;1.9;;
82805;SDS011;72558;51.000;-3.112;2024-03-02T05:15:34;5.1;;;1.9;;
82805;SDS011;72558;51.000;-3.112;2024-03-02T05:18:33;4.2;;;1.3;;
82805;SDS011;72558;51.000;-3.112;2024-03-02T05:21:33;5.8;;;1.3;;
82805;SDS011;72558;51.000;-3.112;2024-03-02T05:24:34;5.0;;;1.5;;
82805;SDS011;72558;51.000;-3.112;2024-03-02T05:27:34;4.6;;;1.6;;
82805;SDS011;72558;51.000;-3.112;2024-03-02T05:30:33;4.2;;;1.3;;
82805;SDS011;72558;51.000;-3.112;2024-03-02T05:33:33;4.2;;;1.4;;
82805;SDS011;72558;51.000;-3.112;2024-03-02T05:36:34;3.4;;;1.2;;
82805;SDS011;72558;51.000;-3.112;2024-03-02T05:39:34;3.4;;;1.0;;
82805;SDS011;72558;51.000;-3.112;2024-03-02T05:42:34;4.1;;;1.1;;
82805;SDS011;72558;51.000;-3.112;2024-03-02T05:45:34;2.8;;;1.5;;
82805;SDS011;72558;51.000;-3.112;2024-03-02T05:48:34;3.4;;;1.5;;
82805;SDS011;72558;51.000;-3.112;2024-03-02T05:51:34;3.2;;;1.2;;
82805;SDS011;72558;51.000;-3.112;2024-03-02T05:54:34;3.4;;;1.1;;
82805;SDS011;72558;51.000;-3.112;2024-03-02T05:57:34;3.0;;;1.3;;
82805;SDS011;72558;51.000;-3.112;2024-03-02T06:00:34;3.3;;;1.5;;
82805;SDS011;72558;51.000;-3.112;2024-03-02T06:03:33;4.5;;;1.6;;
82805;SDS011;72558;51.000;-3.112;2024-03-02T06:06:33;3.6;;;2.0;;
82805;SDS011;72558;51.000;-3.112;2024-03-02T06:09:34;5.1;;;2.1;;
82805;SDS011;72558;51.000;-3.112;2024-03-02T06:12:34;4.0;;;2.0;;
82805;SDS011;72558;51.000;-3.112;2024-03-02T06:15:34;3.1;;;1.8;;
82805;SDS011;72558;51.000;-3.112;2024-03-02T06:18:34;3.9;;;2.1;;
82805;SDS011;72558;51.000;-3.112;2024-03-02T06:21:34;3.1;;;1.6;;
82805;SDS011;72558;51.000;-3.112;2024-03-02T06:24:33;3.0;;;1.7;;
82805;SDS011;72558;51.000;-3.112;2024-03-02T06:27:34;3.7;;;1.5;;
82805;SDS011;72558;51.000;-3.112;2024-03-02T06:30:34;3.9;;;1.9;;
82805;SDS011;72558;51.000;-3.112;2024-03-02T06:33:34;3.4;;;2.0;;
82805;SDS011;72558;51.000;-3.112;2024-03-02T06:36:33;4.0;;;2.1;;
82805;SDS011;72558;51.000;-3.112;2024-03-02T06:39:33;4.4;;;1.9;;
82805;SDS011;72558;51.000;-3.112;2024-03-02T06:42:34;5.8;;;2.3;;
82805;SDS011;72558;51.000;-3.112;2024-03-02T06:45:33;4.5;;;2.3;;
82805;SDS011;72558;51.000;-3.112;2024-03-02T06:48:33;4.7;;;2.5;;
82805;SDS011;72558;51.000;-3.112;2024-03-02T06:51:33;4.5;;;2.4;;
82805;SDS011;72558;51.000;-3.112;2024-03-02T06:54:34;4.5;;;2.2;;
82805;SDS011;72558;51.000;-3.112;2024-03-02T06:57:34;4.6;;;2.3;;
82805;SDS011;72558;51.000;-3.112;2024-03-02T07:00:35;4.8;;;2.4;;
82805;SDS011;72558;51.000;-3.112;2024-03-02T07:03:34;5.0;;;2.3;;
82805;SDS011;72558;51.000;-3.112;2024-03-02T07:06:34;6.5;;;2.9;;
82805;SDS011;72558;51.000;-3.112;2024-03-02T07:09:34;7.0;;;3.5;;
82805;SDS011;72558;51.000;-3.112;2024-03-02T07:12:34;6.7;;;3.5;;
82805;SDS011;72558;51.000;-3.112;2024-03-02T07:15:33;6.5;;;3.4;;
82805;SDS011;72558;51.000;-3.112;2024-03-02T07:18:34;6.2;;;3.0;;
82805;SDS011;72558;51.000;-3.112;2024-03-02T07:21:34;6.2;;;3.0;;
82805;SDS011;72558;51.000;-3.112;2024-03-02T07:24:34;6.2;;;3.5;;
82805;SDS011;72558;51.000;-3.112;2024-03-02T07:27:34;6.6;;;3.2;;
82805;SDS011;72558;51.000;-3.112;2024-03-02T07:30:34;7.3;;;3.3;;
82805;SDS011;72558;51.000;-3.112;2024-03-02T07:33:33;6.7;;;3.3;;
82805;SDS011;72558;51.000;-3.112;2024-03-02T07:36:33;5.9;;;3.3;;
82805;SDS011;72558;51.000;-3.112;2024-03-02T07:39:33;7.5;;;4.0;;
82805;SDS011;72558;51.000;-3.112;2024-03-02T07:42:34;6.9;;;3.7;;
82805;SDS011;72558;51.000;-3.112;2024-03-02T07:45:34;8.2;;;4.3;;
82805;SDS011;72558;51.000;-3.112;2024-03-02T07:48:34;9.2;;;4.8;;
82805;SDS011;72558;51.000;-3.112;2024-03-02T07:51:34;11.0;;;5.4;;
82805;SDS011;72558;51.000;-3.112;2024-03-02T07:54:34;9.2;;;5.7;;
82805;SDS011;72558;51.000;-3.112;2024-03-02T07:57:34;10.0;;;6.1;;
82805;SDS011;72558;51.000;-3.112;2024-03-02T08:00:34;11.8;;;6.1;;
82805;SDS011;72558;51.000;-3.112;2024-03-02T08:03:34;10.6;;;6.0;;
82805;SDS011;72558;51.000;-3.112;2024-03-02T08:06:33;11.6;;;6.5;;
82805;SDS011;72558;51.000;-3.112;2024-03-02T08:09:33;11.7;;;6.4;;
82805;SDS011;72558;51.000;-3.112;2024-03-02T08:12:34;13.0;;;6.7;;
82805;SDS011;72558;51.000;-3.112;2024-03-02T08:15:34;10.5;;;5.9;;
82805;SDS011;72558;51.000;-3.112;2024-03-02T08:18:34;11.4;;;6.2;;
82805;SDS011;72558;51.000;-3.112;2024-03-02T08:21:34;11.0;;;5.9;;
82805;SDS011;72558;51.000;-3.112;2024-03-02T08:24:34;9.6;;;6.0;;
82805;SDS011;72558;51.000;-3.112;2024-03-02T08:27:33;10.3;;;5.7;;
82805;SDS011;72558;51.000;-3.112;2024-03-02T08:30:33;11.2;;;5.7;;
82805;SDS011;72558;51.000;-3.112;2024-03-02T08:33:33;8.9;;;5.2;;
82805;SDS011;72558;51.000;-3.112;2024-03-02T08:36:34;8.5;;;4.5;;
82805;SDS011;72558;51.000;-3.112;2024-03-02T08:39:34;9.0;;;4.8;;
82805;SDS011;72558;51.000;-3.112;2024-03-02T08:42:33;9.0;;;4.2;;
82805;SDS011;72558;51.000;-3.112;2024-03-02T08:45:33;10.1;;;4.3;;
82805;SDS011;72558;51.000;-3.112;2024-03-02T08:48:33;7.8;;;4.2;;
82805;SDS011;72558;51.000;-3.112;2024-03-02T08:51:34;7.8;;;3.7;;
82805;SDS011;72558;51.000;-3.112;2024-03-02T08:54:33;7.8;;;3.8;;
82805;SDS011;72558;51.000;-3.112;2024-03-02T08:57:33;9.5;;;3.5;;
82805;SDS011;72558;51.000;-3.112;2024-03-02T09:00:34;7.7;;;3.7;;
82805;SDS011;72558;51.000;-3.112;2024-03-02T09:03:33;7.7;;;4.4;;
82805;SDS011;72558;51.000;-3.112;2024-03-02T09:06:34;7.9;;;3.6;;
82805;SDS011;72558;51.000;-3.112;2024-03-02T09:09:34;9.9;;;4.0;;
82805;SDS011;72558;51.000;-3.112;2024-03-02T09:12:34;9.8;;;3.3;;
82805;SDS011;72558;51.000;-3.112;2024-03-02T09:15:34;6.4;;;2.9;;
82805;SDS011;72558;51.000;-3.112;2024-03-02T09:18:34;6.1;;;2.6;;
82805;SDS011;72558;51.000;-3.112;2024-03-02T09:21:34;6.7;;;2.4;;
82805;SDS011;72558;51.000;-3.112;2024-03-02T09:24:34;6.4;;;2.5;;
82805;SDS011;72558;51.000;-3.112;2024-03-02T09:27:33;6.2;;;2.3;;
82805;SDS011;72558;51.000;-3.112;2024-03-02T09:30:33;4.4;;;2.4;;
82805;SDS011;72558;51.000;-3.112;2024-03-02T09:33:33;5.5;;;2.0;;
82805;SDS011;72558;51.000;-3.112;2024-03-02T09:36:33;4.5;;;2.0;;
82805;SDS011;72558;51.000;-3.112;2024-03-02T09:39:34;5.4;;;1.9;;
82805;SDS011;72558;51.000;-3.112;2024-03-02T09:42:34;4.1;;;1.8;;
82805;SDS011;72558;51.000;-3.112;2024-03-02T09:45:34;4.2;;;1.9;;
82805;SDS011;72558;51.000;-3.112;2024-03-02T09:48:34;4.7;;;1.7;;
82805;SDS011;72558;51.000;-3.112;2024-03-02T09:51:33;3.7;;;1.7;;
82805;SDS011;72558;51.000;-3.112;2024-03-02T09:54:33;5.2;;;1.4;;
82805;SDS011;72558;51.000;-3.112;2024-03-02T09:57:33;2.7;;;1.3;;
82805;SDS011;72558;51.000;-3.112;2024-03-02T10:00:34;4.1;;;1.0;;
82805;SDS011;72558;51.000;-3.112;2024-03-02T10:03:34;3.3;;;1.2;;
82805;SDS011;72558;51.000;-3.112;2024-03-02T10:06:34;4.1;;;1.3;;
82805;SDS011;72558;51.000;-3.112;2024-03-02T10:09:34;3.6;;;1.1;;
82805;SDS011;72558;51.000;-3.112;2024-03-02T10:12:34;4.7;;;1.4;;
82805;SDS011;72558;51.000;-3.112;2024-03-02T10:15:34;3.3;;;1.1;;
82805;SDS011;72558;51.000;-3.112;2024-03-02T10:18:34;2.5;;;1.0;;
82805;SDS011;72558;51.000;-3.112;2024-03-02T10:21:34;4.3;;;1.1;;
82805;SDS011;72558;51.000;-3.112;2024-03-02T10:24:34;3.5;;;1.1;;
82805;SDS011;72558;51.000;-3.112;2024-03-02T10:27:34;3.2;;;0.9;;
82805;SDS011;72558;51.000;-3.112;2024-03-02T10:30:34;3.6;;;1.1;;
82805;SDS011;72558;51.000;-3.112;2024-03-02T10:33:34;3.1;;;0.8;;
82805;SDS011;72558;51.000;-3.112;2024-03-02T10:36:33;2.9;;;0.9;;
82805;SDS011;72558;51.000;-3.112;2024-03-02T10:39:34;3.3;;;1.0;;
82805;SDS011;72558;51.000;-3.112;2024-03-02T10:42:34;3.2;;;1.1;;
82805;SDS011;72558;51.000;-3.112;2024-03-02T10:45:34;2.6;;;0.9;;
82805;SDS011;72558;51.000;-3.112;2024-03-02T10:48:34;5.3;;;0.8;;
82805;SDS011;72558;51.000;-3.112;2024-03-02T10:51:34;1.9;;;0.6;;
82805;SDS011;72558;51.000;-3.112;2024-03-02T10:54:34;4.0;;;0.8;;
82805;SDS011;72558;51.000;-3.112;2024-03-02T10:57:34;4.2;;;1.2;;
82805;SDS011;72558;51.000;-3.112;2024-03-02T11:00:34;5.7;;;1.6;;
82805;SDS011;72558;51.000;-3.112;2024-03-02T11:03:34;3.4;;;1.1;;
82805;SDS011;72558;51.000;-3.112;2024-03-02T11:06:34;3.3;;;0.7;;
82805;SDS011;72558;51.000;-3.112;2024-03-02T11:09:33;4.6;;;1.2;;
82805;SDS011;72558;51.000;-3.112;2024-03-02T11:12:33;4.1;;;1.1;;
82805;SDS011;72558;51.000;-3.112;2024-03-02T11:15:34;4.1;;;1.2;;
82805;SDS011;72558;51.000;-3.112;2024-03-02T11:18:33;3.0;;;1.1;;
82805;SDS011;72558;51.000;-3.112;2024-03-02T11:21:34;3.5;;;1.3;;
82805;SDS011;72558;51.000;-3.112;2024-03-02T11:24:34;2.9;;;0.8;;
82805;SDS011;72558;51.000;-3.112;2024-03-02T11:27:34;3.3;;;0.9;;
82805;SDS011;72558;51.000;-3.112;2024-03-02T11:30:34;4.4;;;0.8;;
82805;SDS011;72558;51.000;-3.112;2024-03-02T11:33:34;3.6;;;0.9;;
82805;SDS011;72558;51.000;-3.112;2024-03-02T11:36:34;4.1;;;0.9;;
82805;SDS011;72558;51.000;-3.112;2024-03-02T11:39:34;5.2;;;1.1;;
82805;SDS011;72558;51.000;-3.112;2024-03-02T11:42:34;5.2;;;1.4;;
82805;SDS011;72558;51.000;-3.112;2024-03-02T11:45:34;4.5;;;1.1;;
82805;SDS011;72558;51.000;-3.112;2024-03-02T11:48:34;3.8;;;1.1;;
82805;SDS011;72558;51.000;-3.112;2024-03-02T11:51:34;4.8;;;1.1;;
82805;SDS011;72558;51.000;-3.112;2024-03-02T11:54:33;3.8;;;1.0;;
82805;SDS011;72558;51.000;-3.112;2024-03-02T11:57:33;3.4;;;0.9;;
82805;SDS011;72558;51.000;-3.112;2024-03-02T12:00:33;3.0;;;0.8;;
82805;SDS011;72558;51.000;-3.112;2024-03-02T12:03:34;3.9;;;1.0;;
82805;SDS011;72558;51.000;-3.112;2024-03-02T12:06:34;4.5;;;1.1;;
82805;SDS011;72558;51.000;-3.112;2024-03-02T12:09:34;3.6;;;0.9;;
82805;SDS011;72558;51.000;-3.112;2024-03-02T12:12:33;4.9;;;1.1;;
82805;SDS011;72558;51.000;-3.112;2024-03-02T12:15:33;3.2;;;0.7;;
82805;SDS011;72558;51.000;-3.112;2024-03-02T12:18:34;2.5;;;0.7;;
82805;SDS011;72558;51.000;-3.112;2024-03-02T12:21:34;4.3;;;0.8;;
82805;SDS011;72558;51.000;-3.112;2024-03-02T12:24:34;3.7;;;0.8;;
82805;SDS011;72558;51.000;-3.112;2024-03-02T12:27:33;3.8;;;0.5;;
82805;SDS011;72558;51.000;-3.112;2024-03-02T12:30:33;3.7;;;0.6;;
82805;SDS011;72558;51.000;-3.112;2024-03-02T12:33:34;3.5;;;0.5;;
82805;SDS011;72558;51.000;-3.112;2024-03-02T12:36:33;2.6;;;0.4;;
82805;SDS011;72558;51.000;-3.112;2024-03-02T12:39:34;3.5;;;0.4;;
82805;SDS011;72558;51.000;-3.112;2024-03-02T12:42:34;2.2;;;0.8;;
82805;SDS011;72558;51.000;-3.112;2024-03-02T12:45:34;2.6;;;0.6;;
82805;SDS011;72558;51.000;-3.112;2024-03-02T12:48:34;3.0;;;0.5;;
82805;SDS011;72558;51.000;-3.112;2024-03-02T12:51:34;2.6;;;0.4;;
82805;SDS011;72558;51.000;-3.112;2024-03-02T12:54:33;4.7;;;0.6;;
82805;SDS011;72558;51.000;-3.112;2024-03-02T12:57:34;5.4;;;0.6;;
82805;SDS011;72558;51.000;-3.112;2024-03-02T13:00:34;3.0;;;0.7;;
82805;SDS011;72558;51.000;-3.112;2024-03-02T13:03:34;2.0;;;0.5;;
82805;SDS011;72558;51.000;-3.112;2024-03-02T13:06:34;3.5;;;0.7;;
82805;SDS011;72558;51.000;-3.112;2024-03-02T13:09:34;3.1;;;0.8;;
82805;SDS011;72558;51.000;-3.112;2024-03-02T13:12:34;3.1;;;0.6;;
82805;SDS011;72558;51.000;-3.112;2024-03-02T13:15:33;2.3;;;0.5;;
82805;SDS011;72558;51.000;-3.112;2024-03-02T13:18:34;4.1;;;0.5;;
82805;SDS011;72558;51.000;-3.112;2024-03-02T13:21:34;3.1;;;0.4;;
82805;SDS011;72558;51.000;-3.112;2024-03-02T13:24:33;4.1;;;0.9;;
82805;SDS011;72558;51.000;-3.112;2024-03-02T13:27:33;2.7;;;0.4;;
82805;SDS011;72558;51.000;-3.112;2024-03-02T13:30:34;4.1;;;0.7;;
82805;SDS011;72558;51.000;-3.112;2024-03-02T13:33:34;3.9;;;0.5;;
82805;SDS011;72558;51.000;-3.112;2024-03-02T13:36:34;2.7;;;0.4;;
82805;SDS011;72558;51.000;-3.112;2024-03-02T13:39:34;2.7;;;0.4;;
82805;SDS011;72558;51.000;-3.112;2024-03-02T13:42:33;3.9;;;0.5;;
82805;SDS011;72558;51.000;-3.112;2024-03-02T13:45:34;3.0;;;0.7;;
82805;SDS011;72558;51.000;-3.112;2024-03-02T13:48:34;6.7;;;0.7;;
82805;SDS011;72558;51.000;-3.112;2024-03-02T13:51:33;3.0;;;0.7;;
82805;SDS011;72558;51.000;-3.112;2024-03-02T13:54:33;3.7;;;0.3;;
82805;SDS011;72558;51.000;-3.112;2024-03-02T13:57:34;4.5;;;0.4;;
82805;SDS011;72558;51.000;-3.112;2024-03-02T14:00:34;4.2;;;0.7;;
82805;SDS011;72558;51.000;-3.112;2024-03-02T14:03:33;4.2;;;0.5;;
82805;SDS011;72558;51.000;-3.112;2024-03-02T14:06:34;2.9;;;0.5;;
82805;SDS011;72558;51.000;-3.112;2024-03-02T14:09:34;4.6;;;0.5;;
82805;SDS011;72558;51.000;-3.112;2024-03-02T14:12:34;2.5;;;0.5;;
82805;SDS011;72558;51.000;-3.112;2024-03-02T14:15:34;3.3;;;0.4;;
82805;SDS011;72558;51.000;-3.112;2024-03-02T14:18:34;4.0;;;0.5;;
82805;SDS011;72558;51.000;-3.112;2024-03-02T14:21:35;2.9;;;0.5;;
82805;SDS011;72558;51.000;-3.112;2024-03-02T14:24:34;2.2;;;0.7;;
82805;SDS011;72558;51.000;-3.112;2024-03-02T14:27:34;1.3;;;0.4;;
82805;SDS011;72558;51.000;-3.112;2024-03-02T14:30:33;1.6;;;0.3;;
82805;SDS011;72558;51.000;-3.112;2024-03-02T14:33:33;1.5;;;0.4;;
82805;SDS011;72558;51.000;-3.112;2024-03-02T14:36:34;3.0;;;0.5;;
82805;SDS011;72558;51.000;-3.112;2024-03-02T14:39:34;2.2;;;0.6;;
82805;SDS011;72558;51.000;-3.112;2024-03-02T14:42:34;2.5;;;0.7;;
82805;SDS011;72558;51.000;-3.112;2024-03-02T14:45:34;2.5;;;0.3;;
82805;SDS011;72558;51.000;-3.112;2024-03-02T14:48:34;1.4;;;0.2;;
82805;SDS011;72558;51.000;-3.112;2024-03-02T14:51:34;2.5;;;0.6;;
82805;SDS011;72558;51.000;-3.112;2024-03-02T14:54:34;3.3;;;0.8;;
82805;SDS011;72558;51.000;-3.112;2024-03-02T14:57:34;2.4;;;0.3;;
82805;SDS011;72558;51.000;-3.112;2024-03-02T15:00:34;2.1;;;0.5;;
82805;SDS011;72558;51.000;-3.112;2024-03-02T15:03:34;1.4;;;0.3;;
82805;SDS011;72558;51.000;-3.112;2024-03-02T15:06:34;2.5;;;0.6;;
82805;SDS011;72558;51.000;-3.112;2024-03-02T15:09:34;2.1;;;0.4;;
82805;SDS011;72558;51.000;-3.112;2024-03-02T15:12:34;2.9;;;0.4;;
82805;SDS011;72558;51.000;-3.112;2024-03-02T15:15:34;1.7;;;0.3;;
82805;SDS011;72558;51.000;-3.112;2024-03-02T15:18:34;1.4;;;0.3;;
82805;SDS011;72558;51.000;-3.112;2024-03-02T15:21:34;3.3;;;0.6;;
82805;SDS011;72558;51.000;-3.112;2024-03-02T15:24:33;3.5;;;0.6;;
82805;SDS011;72558;51.000;-3.112;2024-03-02T15:27:34;2.5;;;0.3;;
82805;SDS011;72558;51.000;-3.112;2024-03-02T15:30:35;2.0;;;0.5;;
82805;SDS011;72558;51.000;-3.112;2024-03-02T15:33:33;1.9;;;0.4;;
82805;SDS011;72558;51.000;-3.112;2024-03-02T15:36:33;2.5;;;0.4;;
82805;SDS011;72558;51.000;-3.112;2024-03-02T15:39:34;2.2;;;0.5;;
82805;SDS011;72558;51.000;-3.112;2024-03-02T15:42:34;2.4;;;0.4;;
82805;SDS011;72558;51.000;-3.112;2024-03-02T15:45:35;2.6;;;0.5;;
82805;SDS011;72558;51.000;-3.112;2024-03-02T15:48:34;2.0;;;0.5;;
82805;SDS011;72558;51.000;-3.112;2024-03-02T15:51:33;1.8;;;0.5;;
82805;SDS011;72558;51.000;-3.112;2024-03-02T15:54:34;3.9;;;0.5;;
82805;SDS011;72558;51.000;-3.112;2024-03-02T15:57:34;2.2;;;0.5;;
82805;SDS011;72558;51.000;-3.112;2024-03-02T16:00:34;1.8;;;0.2;;
82805;SDS011;72558;51.000;-3.112;2024-03-02T16:03:34;2.6;;;0.5;;
82805;SDS011;72558;51.000;-3.112;2024-03-02T16:06:34;2.4;;;0.3;;
82805;SDS011;72558;51.000;-3.112;2024-03-02T16:09:34;1.7;;;0.4;;
82805;SDS011;72558;51.000;-3.112;2024-03-02T16:12:34;2.2;;;0.3;;
82805;SDS011;72558;51.000;-3.112;2024-03-02T16:15:33;1.6;;;0.4;;
82805;SDS011;72558;51.000;-3.112;2024-03-02T16:18:34;1.4;;;0.5;;
82805;SDS011;72558;51.000;-3.112;2024-03-02T16:21:34;1.1;;;0.3;;
82805;SDS011;72558;51.000;-3.112;2024-03-02T16:24:34;1.5;;;0.3;;
82805;SDS011;72558;51.000;-3.112;2024-03-02T16:27:34;2.9;;;0.6;;
82805;SDS011;72558;51.000;-3.112;2024-03-02T16:30:34;2.6;;;0.8;;
82805;SDS011;72558;51.000;-3.112;2024-03-02T16:33:34;2.1;;;0.7;;
82805;SDS011;72558;51.000;-3.112;2024-03-02T16:36:33;1.4;;;0.4;;
82805;SDS011;72558;51.000;-3.112;2024-03-02T16:39:33;2.4;;;0.4;;
82805;SDS011;72558;51.000;-3.112;2024-03-02T16:42:34;2.2;;;0.3;;
82805;SDS011;72558;51.000;-3.112;2024-03-02T16:45:34;2.8;;;0.4;;
82805;SDS011;72558;51.000;-3.112;2024-03-02T16:48:34;3.4;;;0.6;;
82805;SDS011;72558;51.000;-3.112;2024-03-02T16:51:34;1.5;;;0.4;;
82805;SDS011;72558;51.000;-3.112;2024-03-02T16:54:33;3.0;;;0.8;;
82805;SDS011;72558;51.000;-3.112;2024-03-02T16:57:34;3.3;;;0.7;;
82805;SDS011;72558;51.000;-3.112;2024-03-02T17:00:34;3.5;;;0.7;;
82805;SDS011;72558;51.000;-3.112;2024-03-02T17:03:33;1.8;;;0.5;;
82805;SDS011;72558;51.000;-3.112;2024-03-02T17:06:33;1.7;;;0.3;;
82805;SDS011;72558;51.000;-3.112;2024-03-02T17:09:34;1.1;;;0.3;;
82805;SDS011;72558;51.000;-3.112;2024-03-02T17:12:34;2.8;;;0.5;;
82805;SDS011;72558;51.000;-3.112;2024-03-02T17:15:34;1.4;;;0.3;;
82805;SDS011;72558;51.000;-3.112;2024-03-02T17:18:34;1.6;;;0.5;;
82805;SDS011;72558;51.000;-3.112;2024-03-02T17:21:34;1.8;;;0.4;;
82805;SDS011;72558;51.000;-3.112;2024-03-02T17:24:33;4.0;;;0.8;;
82805;SDS011;72558;51.000;-3.112;2024-03-02T17:27:33;3.1;;;0.7;;
82805;SDS011;72558;51.000;-3.112;2024-03-02T17:30:34;2.8;;;0.7;;
82805;SDS011;72558;51.000;-3.112;2024-03-02T17:33:34;4.0;;;1.0;;
82805;SDS011;72558;51.000;-3.112;2024-03-02T17:36:34;5.9;;;1.4;;
82805;SDS011;72558;51.000;-3.112;2024-03-02T17:39:34;7.1;;;1.5;;
82805;SDS011;72558;51.000;-3.112;2024-03-02T17:42:34;6.2;;;1.2;;
82805;SDS011;72558;51.000;-3.112;2024-03-02T17:45:33;2.9;;;0.6;;
82805;SDS011;72558;51.000;-3.112;2024-03-02T17:48:34;9.4;;;2.7;;
82805;SDS011;72558;51.000;-3.112;2024-03-02T17:51:34;5.4;;;1.3;;
82805;SDS011;72558;51.000;-3.112;2024-03-02T17:54:34;25.0;;;11.4;;
82805;SDS011;72558;51.000;-3.112;2024-03-02T17:57:34;11.7;;;5.1;;
82805;SDS011;72558;51.000;-3.112;2024-03-02T18:00:34;11.6;;;2.6;;
82805;SDS011;72558;51.000;-3.112;2024-03-02T18:03:34;6.4;;;2.0;;
82805;SDS011;72558;51.000;-3.112;2024-03-02T18:06:34;11.7;;;3.1;;
82805;SDS011;72558;51.000;-3.112;2024-03-02T18:09:34;10.9;;;2.8;;
82805;SDS011;72558;51.000;-3.112;2024-03-02T18:12:33;11.7;;;3.6;;
82805;SDS011;72558;51.000;-3.112;2024-03-02T18:15:33;10.9;;;2.8;;
82805;SDS011;72558;51.000;-3.112;2024-03-02T18:18:34;15.7;;;5.5;;